METAR Data
IDs: Format: Raw Decoded Include TAF

Data at: 1952 UTC 08 Feb 2023

KSWF 081945Z 30010KT 10SM SKC 09/M03 A3017